Time;durP1;ratioP1;P1;durP2;ratioP2;P2;SDS_P1;SDS_P2;PMS_P1;PMS_P2;Temp;Humidity;BMP_temperature;BMP_pressure;BME280_temperature;BME280_humidity;BME280_pressure;Samples;Min_cycle;Max_cycle;Signal;HPM_P1;HPM_P2
2022/05/13 00:01:22;;;;;;;30.70;13.32;;;;;;;13.08;100.00;99978.16;1696599;84;21058;-70
2022/05/13 00:03:49;;;;;;;24.57;12.78;;;;;;;13.01;100.00;99971.47;1696647;84;21494;-72
2022/05/13 00:06:15;;;;;;;24.77;12.93;;;;;;;12.99;100.00;99983.91;1696741;84;21663;-69
2022/05/13 00:08:42;;;;;;;24.63;12.95;;;;;;;12.99;100.00;99984.75;1696644;84;21628;-71
2022/05/13 00:11:09;;;;;;;23.50;12.53;;;;;;;12.88;100.00;99982.25;1696762;84;21838;-69
2022/05/13 00:13:36;;;;;;;25.08;13.90;;;;;;;12.82;100.00;99985.21;1709782;83;21081;-70
2022/05/13 00:16:04;;;;;;;24.50;11.83;;;;;;;12.77;100.00;99982.31;1717159;82;21056;-70
2022/05/13 00:18:31;;;;;;;22.20;12.07;;;;;;;12.73;100.00;99995.75;1712673;83;21564;-70
2022/05/13 00:20:59;;;;;;;23.20;11.12;;;;;;;12.67;100.00;99995.56;1712849;83;22230;-71
2022/05/13 00:23:25;;;;;;;24.18;11.68;;;;;;;12.63;100.00;99999.30;1712586;82;21865;-70
2022/05/13 00:25:52;;;;;;;22.30;11.48;;;;;;;12.57;100.00;100002.23;1712856;83;21554;-69
2022/05/13 00:28:19;;;;;;;22.07;11.10;;;;;;;12.50;100.00;100002.13;1712912;82;21071;-70
2022/05/13 00:30:48;;;;;;;25.95;11.22;;;;;;;12.47;100.00;100007.09;1713036;82;21060;-70
2022/05/13 00:33:16;;;;;;;26.25;12.13;;;;;;;12.43;100.00;100002.03;1713096;83;21031;-70
2022/05/13 00:35:43;;;;;;;21.57;10.95;;;;;;;12.37;100.00;100009.28;1702803;83;21243;-69
2022/05/13 00:38:10;;;;;;;24.85;10.50;;;;;;;12.32;100.00;100011.28;1712693;83;21599;-70
2022/05/13 00:40:39;;;;;;;27.70;10.75;;;;;;;12.27;100.00;100006.69;1712931;82;21072;-69
2022/05/13 00:43:09;;;;;;;22.45;11.80;;;;;;;12.21;100.00;100008.75;1702881;83;21559;-69
2022/05/13 00:45:36;;;;;;;21.60;10.93;;;;;;;12.17;100.00;100006.73;1712842;83;21115;-70
2022/05/13 00:48:04;;;;;;;21.50;10.72;;;;;;;12.10;100.00;100009.23;1712869;82;21086;-71
2022/05/13 00:50:35;;;;;;;24.40;12.40;;;;;;;12.11;100.00;100010.95;1712829;83;21677;-70
2022/05/13 00:53:02;;;;;;;21.37;11.00;;;;;;;12.05;100.00;100016.50;1712812;83;21076;-69
2022/05/13 00:55:34;;;;;;;22.85;11.20;;;;;;;11.99;100.00;100011.52;1713066;82;20992;-69
2022/05/13 00:58:01;;;;;;;23.60;12.28;;;;;;;11.93;100.00;100009.99;1712848;82;21647;-71
2022/05/13 01:00:28;;;;;;;20.90;10.63;;;;;;;11.92;100.00;100014.42;1712763;82;21218;-69
2022/05/13 01:02:54;;;;;;;22.50;10.80;;;;;;;11.87;100.00;100016.41;1712908;83;21052;-71
2022/05/13 01:05:21;;;;;;;23.98;12.05;;;;;;;11.78;100.00;100015.47;1713373;82;21297;-69
2022/05/13 01:07:51;;;;;;;26.07;11.45;;;;;;;11.66;100.00;100012.02;1712675;83;21028;-70
2022/05/13 01:10:24;;;;;;;19.45;11.08;;;;;;;11.63;100.00;100022.72;1712985;82;21058;-68
2022/05/13 01:12:57;;;;;;;18.70;10.03;;;;;;;11.68;100.00;100020.73;1712990;82;22084;-70
2022/05/13 01:15:28;;;;;;;16.27;10.28;;;;;;;11.61;100.00;100025.41;1715871;82;21073;-69
2022/05/13 01:18:07;;;;;;;22.82;10.95;;;;;;;11.54;100.00;100027.45;1725855;82;21029;-71
2022/05/13 01:20:46;;;;;;;18.98;10.78;;;;;;;11.46;100.00;100026.94;1725745;82;21068;-69
2022/05/13 01:23:19;;;;;;;18.17;11.15;;;;;;;11.39;100.00;100025.48;1725606;82;21084;-70
2022/05/13 01:25:56;;;;;;;20.02;11.57;;;;;;;11.27;100.00;100033.87;1725649;83;21778;-71
2022/05/13 01:28:31;;;;;;;24.47;12.03;;;;;;;11.15;100.00;100033.08;1725556;83;21823;-69
2022/05/13 01:31:01;;;;;;;20.17;11.28;;;;;;;11.07;100.00;100028.13;1725658;83;21582;-70
2022/05/13 01:33:29;;;;;;;23.73;10.85;;;;;;;10.99;100.00;100032.38;1726111;83;21108;-70
2022/05/13 01:35:58;;;;;;;18.80;10.68;;;;;;;10.92;100.00;100027.80;1725701;83;21589;-70
2022/05/13 01:38:29;;;;;;;23.85;10.90;;;;;;;10.86;100.00;100033.34;1725874;83;21206;-70
2022/05/13 01:40:55;;;;;;;17.77;10.98;;;;;;;10.82;100.00;100032.20;1725208;82;21029;-71
2022/05/13 01:43:23;;;;;;;27.87;10.65;;;;;;;10.76;100.00;100038.56;1725677;82;21278;-69
2022/05/13 01:45:51;;;;;;;16.05;10.72;;;;;;;10.69;100.00;100035.30;1725615;82;21002;-71
2022/05/13 01:48:18;;;;;;;22.75;10.35;;;;;;;10.68;100.00;100041.50;1725989;82;21600;-69
2022/05/13 01:50:44;;;;;;;18.10;10.53;;;;;;;10.65;100.00;100040.75;1725730;82;21269;-70
2022/05/13 01:53:13;;;;;;;22.85;10.88;;;;;;;10.56;100.00;100041.98;1725401;82;21061;-70
2022/05/13 01:55:42;;;;;;;19.32;10.63;;;;;;;10.52;100.00;100043.02;1725618;82;21025;-70
2022/05/13 01:58:08;;;;;;;19.15;11.15;;;;;;;10.47;100.00;100050.23;1725804;82;21131;-70
2022/05/13 02:00:35;;;;;;;20.15;10.82;;;;;;;10.40;100.00;100050.03;1725867;82;21037;-69
2022/05/13 02:05:46;;;;;;;17.42;10.93;;;;;;;10.31;100.00;100050.38;1725673;83;21116;-70
2022/05/13 02:08:13;;;;;;;17.87;10.48;;;;;;;10.23;100.00;100051.49;1725549;83;21072;-70
2022/05/13 02:10:40;;;;;;;16.40;10.13;;;;;;;10.19;100.00;100060.44;1725558;83;21044;-70
2022/05/13 02:13:07;;;;;;;29.63;10.48;;;;;;;10.19;100.00;100050.34;1716629;83;21144;-70
2022/05/13 02:15:34;;;;;;;18.90;10.20;;;;;;;10.15;100.00;100052.25;1689133;84;21632;-70
2022/05/13 02:18:00;;;;;;;18.67;9.33;;;;;;;10.13;100.00;100059.34;1678516;85;21246;-69
2022/05/13 02:20:27;;;;;;;18.52;9.80;;;;;;;10.04;100.00;100052.62;1645383;87;21122;-71
2022/05/13 02:22:53;;;;;;;17.92;9.30;;;;;;;10.00;100.00;100057.59;1645562;87;21066;-70
2022/05/13 02:25:20;;;;;;;15.80;9.63;;;;;;;9.95;100.00;100061.31;1646060;87;21065;-71
2022/05/13 02:30:12;;;;;;;15.30;9.58;;;;;;;9.77;100.00;100061.03;1814416;79;28036;-71
2022/05/13 02:32:40;;;;;;;20.85;10.32;;;;;;;9.64;100.00;100064.56;1787517;80;21058;-70
2022/05/13 02:35:08;;;;;;;18.48;10.45;;;;;;;9.69;100.00;100073.61;1787363;80;21260;-71
2022/05/13 02:37:35;;;;;;;16.27;10.28;;;;;;;9.65;100.00;100073.30;1787346;80;21001;-70
2022/05/13 02:40:03;;;;;;;23.60;10.68;;;;;;;9.62;100.00;100081.30;1787483;80;20977;-70
2022/05/13 02:42:31;;;;;;;19.90;11.18;;;;;;;9.59;100.00;100084.02;1787196;80;20922;-71
2022/05/13 02:44:58;;;;;;;23.30;11.38;;;;;;;9.54;100.00;100085.95;1787568;80;21096;-69
2022/05/13 02:47:25;;;;;;;23.98;11.73;;;;;;;9.50;100.00;100081.27;1787480;80;21657;-70
2022/05/13 02:50:17;;;;;;;20.43;11.35;;;;;;;9.48;100.00;100086.14;1787664;80;21631;-70
2022/05/13 02:52:20;;;;;;;24.63;13.72;;;;;;;9.45;100.00;100081.42;1782382;80;21033;-70
2022/05/13 02:54:47;;;;;;;26.37;14.38;;;;;;;9.44;100.00;100081.00;1780019;80;21544;-70
2022/05/13 02:57:13;;;;;;;19.82;11.38;;;;;;;9.44;100.00;100081.00;1758626;81;22137;-70
2022/05/13 02:59:40;;;;;;;26.25;14.07;;;;;;;9.50;100.00;100086.95;1758688;81;21047;-70
2022/05/13 03:02:07;;;;;;;26.42;13.65;;;;;;;9.53;100.00;100082.93;1758550;81;21299;-70
2022/05/13 03:04:34;;;;;;;25.10;13.98;;;;;;;9.58;100.00;100079.69;1758644;81;21085;-70
2022/05/13 03:07:01;;;;;;;23.85;12.45;;;;;;;9.71;100.00;100085.37;1758507;81;21104;-69
2022/05/13 03:09:28;;;;;;;17.90;9.70;;;;;;;9.80;100.00;100091.63;1758644;81;20986;-69
2022/05/13 03:11:54;;;;;;;18.15;7.80;;;;;;;9.93;100.00;100090.76;1758465;81;21846;-69
2022/05/13 03:14:21;;;;;;;11.68;6.47;;;;;;;10.05;100.00;100082.42;1758522;81;21141;-71
2022/05/13 03:16:48;;;;;;;12.43;6.28;;;;;;;10.17;100.00;100089.90;1758689;81;21022;-68
2022/05/13 03:19:14;;;;;;;11.73;6.30;;;;;;;10.27;100.00;100085.16;1758741;81;21057;-70
2022/05/13 03:21:42;;;;;;;13.68;8.15;;;;;;;10.49;100.00;100095.80;1758571;81;21097;-70
2022/05/13 03:24:08;;;;;;;18.82;7.92;;;;;;;10.68;100.00;100099.44;1758750;81;21243;-70
2022/05/13 03:26:35;;;;;;;20.52;8.85;;;;;;;10.93;100.00;100098.52;1759013;81;21006;-68
2022/05/13 03:29:02;;;;;;;16.42;8.08;;;;;;;11.40;100.00;100102.33;1753523;81;21108;-69
2022/05/13 03:31:29;;;;;;;12.55;6.92;;;;;;;12.15;100.00;100106.25;1745825;82;21491;-70
2022/05/13 03:33:57;;;;;;;8.15;4.90;;;;;;;12.96;100.00;100106.50;1724446;82;21073;-69
2022/05/13 03:36:24;;;;;;;9.73;4.00;;;;;;;13.71;100.00;100103.80;1745627;82;21278;-71
2022/05/13 03:38:51;;;;;;;4.95;3.20;;;;;;;14.35;100.00;100104.91;1745306;82;21573;-69
2022/05/13 03:41:18;;;;;;;9.98;4.05;;;;;;;14.89;97.07;100106.41;1744888;82;21529;-70
2022/05/13 03:43:45;;;;;;;9.85;3.67;;;;;;;15.34;93.45;100103.05;1744880;82;21505;-70
2022/05/13 03:46:11;;;;;;;6.60;3.37;;;;;;;15.77;90.78;100101.92;1745279;82;21552;-70
2022/05/13 03:48:38;;;;;;;5.80;3.50;;;;;;;16.21;88.96;100101.05;1744923;82;21065;-70
2022/05/13 03:51:04;;;;;;;5.70;2.92;;;;;;;16.67;85.43;100101.72;1745011;82;21022;-71
2022/05/13 03:53:31;;;;;;;5.40;2.77;;;;;;;17.09;81.92;100103.10;1745014;82;21061;-70
2022/05/13 03:55:58;;;;;;;6.33;2.70;;;;;;;17.44;80.17;100101.27;1745083;82;21252;-71
2022/05/13 03:58:24;;;;;;;8.08;2.62;;;;;;;17.75;76.79;100102.27;1745026;82;21109;-70
2022/05/13 04:00:51;;;;;;;4.90;2.80;;;;;;;17.99;75.98;100102.92;1745137;82;21229;-69
2022/05/13 04:03:21;;;;;;;8.35;2.72;;;;;;;18.22;73.75;100104.00;1745266;82;21081;-70
2022/05/13 04:11:20;;;;;;;6.58;3.47;;;;;;;18.92;69.64;100105.37;1745097;82;21611;-70
2022/05/13 04:16:31;;;;;;;4.78;2.77;;;;;;;19.36;65.88;100111.45;1715195;83;21093;-71
2022/05/13 04:18:58;;;;;;;6.55;3.45;;;;;;;19.49;63.46;100109.58;1715422;83;22142;-70
2022/05/13 04:21:29;;;;;;;9.35;3.70;;;;;;;19.58;63.22;100112.52;1715362;83;20986;-70
2022/05/13 04:24:00;;;;;;;10.13;3.98;;;;;;;19.68;60.91;100116.21;1715441;83;21057;-68
2022/05/13 04:26:26;;;;;;;;;;;;;;;19.68;60.91;100116.21;1718010;83;21222;-70
2022/05/13 04:28:54;;;;;;;15.70;5.70;;;;;;;19.53;61.04;100125.36;1715858;82;20203;-69
2022/05/13 04:31:24;;;;;;;22.13;6.47;;;;;;;19.48;60.42;100126.55;1717623;83;21054;-69
2022/05/13 04:33:51;;;;;;;17.80;6.65;;;;;;;19.47;61.45;100132.88;1717811;83;21096;-70
2022/05/13 04:36:18;;;;;;;21.20;7.70;;;;;;;19.60;60.86;100130.16;1717767;83;21053;-71
2022/05/13 04:38:45;;;;;;;20.88;6.67;;;;;;;19.77;60.13;100126.73;1691485;83;21892;-71
2022/05/13 04:43:57;;;;;;;20.15;7.25;;;;;;;19.97;59.69;100131.87;1718288;83;21381;-70
2022/05/13 04:46:25;;;;;;;23.22;6.87;;;;;;;20.07;57.98;100138.24;1717994;83;21012;-69
2022/05/13 04:48:53;;;;;;;17.73;7.00;;;;;;;20.34;57.57;100143.30;1717820;83;21108;-71
2022/05/13 04:51:20;;;;;;;16.97;6.35;;;;;;;20.63;56.01;100149.05;1717928;83;21219;-70
2022/05/13 04:53:50;;;;;;;15.38;6.72;;;;;;;20.91;54.16;100138.83;1717971;83;21049;-70
2022/05/13 04:56:16;;;;;;;13.17;6.10;;;;;;;21.19;52.50;100137.48;1718253;83;21113;-71
2022/05/13 04:58:43;;;;;;;13.65;5.85;;;;;;;21.34;51.61;100127.32;1718064;83;21078;-71
2022/05/13 05:01:10;;;;;;;13.90;5.60;;;;;;;21.56;50.88;100124.61;1717873;83;21077;-70
2022/05/13 05:03:37;;;;;;;13.15;5.78;;;;;;;21.70;48.83;100126.14;1717903;83;21102;-71
2022/05/13 05:06:04;;;;;;;14.90;6.35;;;;;;;21.82;48.56;100122.07;1717889;83;21486;-71
2022/05/13 05:08:31;;;;;;;15.75;5.97;;;;;;;21.90;46.93;100120.45;1717636;83;21598;-70
2022/05/13 05:10:59;;;;;;;12.05;6.95;;;;;;;21.93;46.14;100123.36;1717785;83;21044;-71
2022/05/13 05:13:48;;;;;;;16.17;7.28;;;;;;;22.09;46.15;100125.59;1729330;82;21065;-70
2022/05/13 05:16:15;;;;;;;18.82;7.60;;;;;;;22.35;45.87;100120.19;1647150;87;21743;-70
2022/05/13 05:18:42;;;;;;;14.25;7.15;;;;;;;22.71;44.92;100116.62;1675684;85;21101;-70
2022/05/13 05:21:09;;;;;;;13.80;7.15;;;;;;;22.82;43.44;100116.53;1675875;85;21057;-71
2022/05/13 05:23:38;;;;;;;17.67;8.43;;;;;;;22.71;43.19;100119.31;1675850;85;21065;-70
2022/05/13 05:26:06;;;;;;;16.93;8.30;;;;;;;22.46;43.51;100131.84;1676292;85;21148;-71
2022/05/13 05:28:37;;;;;;;19.50;7.60;;;;;;;22.28;43.96;100136.46;1700258;84;21883;-70
2022/05/13 05:31:04;;;;;;;15.25;7.22;;;;;;;22.18;44.09;100135.53;1700419;84;21062;-71
2022/05/13 05:33:31;;;;;;;15.35;7.17;;;;;;;22.14;44.93;100139.45;1700031;84;21110;-70
2022/05/13 05:35:57;;;;;;;11.53;6.37;;;;;;;22.36;43.43;100149.20;1700464;84;21051;-70
2022/05/13 05:38:24;;;;;;;23.87;6.97;;;;;;;22.46;42.76;100142.58;1700267;84;21097;-69
2022/05/13 05:40:51;;;;;;;14.38;7.30;;;;;;;22.16;43.09;100137.48;1700261;84;21277;-71
2022/05/13 05:43:19;;;;;;;17.25;6.97;;;;;;;21.92;43.87;100141.25;1700006;84;21036;-70
2022/05/13 05:45:45;;;;;;;17.82;6.92;;;;;;;21.98;43.37;100132.70;1700393;84;21050;-71
2022/05/13 05:48:14;;;;;;;18.77;6.42;;;;;;;22.12;43.34;100130.68;1700033;84;21082;-70
2022/05/13 05:50:41;;;;;;;18.60;7.30;;;;;;;22.17;42.73;100140.02;1700124;84;21035;-71
2022/05/13 05:53:08;;;;;;;20.95;7.17;;;;;;;22.39;41.50;100132.36;1699960;84;21534;-70
2022/05/13 05:58:20;;;;;;;11.57;4.22;;;;;;;22.63;41.03;100129.86;1700041;83;21122;-71
2022/05/13 06:00:50;;;;;;;9.23;4.70;;;;;;;22.94;38.37;100128.52;1700183;84;21125;-71
2022/05/13 06:03:17;;;;;;;12.93;4.12;;;;;;;23.13;37.45;100112.47;1700093;84;21094;-71
2022/05/13 06:05:48;;;;;;;8.30;4.55;;;;;;;23.29;38.13;100110.59;1700265;84;21248;-70
2022/05/13 06:08:15;;;;;;;10.23;4.62;;;;;;;23.34;37.40;100112.87;1700197;84;21073;-71
2022/05/13 06:10:42;;;;;;;11.40;5.22;;;;;;;23.33;37.72;100121.90;1700385;84;22335;-71
2022/05/13 06:13:10;;;;;;;12.05;4.80;;;;;;;23.28;37.85;100129.53;1700165;84;21506;-71
2022/05/13 06:15:37;;;;;;;8.38;2.77;;;;;;;23.20;37.29;100137.80;1695243;84;21131;-70
2022/05/13 06:18:03;;;;;;;6.22;2.33;;;;;;;23.21;36.53;100142.66;1692764;84;21235;-70
2022/05/13 06:20:31;;;;;;;8.95;2.40;;;;;;;23.11;36.69;100145.83;1692455;84;21042;-70
2022/05/13 06:22:57;;;;;;;3.77;2.25;;;;;;;23.08;35.68;100146.96;1692642;84;21704;-70
2022/05/13 06:25:24;;;;;;;6.33;2.10;;;;;;;23.14;35.27;100147.73;1692439;84;21047;-71
2022/05/13 06:27:53;;;;;;;3.45;1.80;;;;;;;23.25;36.00;100147.62;1692635;84;21082;-71
2022/05/13 06:30:24;;;;;;;8.63;2.05;;;;;;;23.41;36.15;100146.25;1692469;84;21232;-71
2022/05/13 06:32:51;;;;;;;4.85;2.10;;;;;;;23.45;34.35;100165.14;1692426;84;21094;-71
2022/05/13 06:35:19;;;;;;;5.62;1.75;;;;;;;23.39;35.40;100150.91;1692751;84;21126;-70
2022/05/13 06:37:45;;;;;;;4.47;1.70;;;;;;;23.39;34.56;100153.59;1692536;84;21066;-70
2022/05/13 06:40:12;;;;;;;4.85;1.80;;;;;;;23.32;35.14;100160.52;1692297;84;21069;-70
2022/05/13 06:42:40;;;;;;;9.68;1.65;;;;;;;23.43;35.38;100161.75;1692379;84;21938;-71
2022/05/13 06:45:07;;;;;;;5.22;1.55;;;;;;;23.62;33.39;100163.09;1692222;84;21079;-70
2022/05/13 06:47:35;;;;;;;6.70;2.00;;;;;;;23.73;32.61;100160.78;1692204;84;21066;-71
2022/05/13 06:50:05;;;;;;;3.22;1.60;;;;;;;23.68;32.44;100160.86;1692369;83;21159;-71
2022/05/13 06:52:32;;;;;;;9.83;1.80;;;;;;;23.70;32.48;100158.89;1692099;84;21039;-72
2022/05/13 06:54:59;;;;;;;6.97;2.42;;;;;;;23.73;32.41;100153.22;1692256;84;21215;-72
2022/05/13 06:57:26;;;;;;;7.65;2.00;;;;;;;23.74;32.47;100154.47;1692331;84;21601;-72
2022/05/13 06:59:53;;;;;;;4.75;2.02;;;;;;;23.78;33.25;100142.91;1692271;84;21531;-72
2022/05/13 07:02:21;;;;;;;5.35;2.08;;;;;;;23.97;32.90;100142.05;1692284;84;21705;-72
2022/05/13 07:04:47;;;;;;;6.37;1.80;;;;;;;24.18;32.62;100149.48;1692306;84;21673;-71
2022/05/13 07:07:14;;;;;;;6.00;2.10;;;;;;;24.38;31.93;100154.30;1692494;84;21302;-71
2022/05/13 07:09:41;;;;;;;4.10;2.10;;;;;;;24.53;31.76;100143.13;1692053;84;22284;-71
2022/05/13 07:12:09;;;;;;;5.45;2.25;;;;;;;24.61;31.98;100157.53;1692395;84;21090;-72
2022/05/13 07:14:36;;;;;;;7.17;2.20;;;;;;;24.62;30.44;100153.02;1692685;84;21121;-71
2022/05/13 07:17:04;;;;;;;7.85;2.58;;;;;;;24.48;30.73;100151.64;1692523;84;21038;-71
2022/05/13 07:19:30;;;;;;;11.30;2.80;;;;;;;24.40;31.64;100144.75;1692389;84;21324;-70
2022/05/13 07:21:57;;;;;;;4.47;2.20;;;;;;;24.53;31.71;100151.20;1692561;83;21095;-72
2022/05/13 07:24:24;;;;;;;6.92;2.52;;;;;;;24.68;30.85;100144.33;1692480;84;21051;-71
2022/05/13 07:26:51;;;;;;;9.00;2.67;;;;;;;24.76;29.96;100155.23;1692669;84;21114;-71
2022/05/13 07:29:18;;;;;;;7.30;3.12;;;;;;;24.63;29.66;100152.01;1692621;84;21062;-71
2022/05/13 07:31:44;;;;;;;6.40;2.95;;;;;;;24.55;30.73;100147.84;1692643;84;21265;-72
2022/05/13 07:34:11;;;;;;;11.73;2.75;;;;;;;24.53;30.74;100151.20;1692416;83;21612;-70
2022/05/13 07:36:38;;;;;;;5.33;2.42;;;;;;;24.67;31.23;100154.26;1692445;84;21039;-72
2022/05/13 07:41:49;;;;;;;6.83;2.15;;;;;;;25.03;29.96;100158.92;1692682;84;21078;-70
2022/05/13 07:44:16;;;;;;;6.85;2.67;;;;;;;25.21;29.95;100157.15;1692434;84;21267;-73
2022/05/13 07:46:43;;;;;;;6.60;2.50;;;;;;;25.36;29.64;100156.66;1692438;84;21079;-71
2022/05/13 07:49:11;;;;;;;9.18;2.33;;;;;;;25.30;29.16;100164.33;1692299;83;21069;-71
2022/05/13 07:51:40;;;;;;;7.17;2.70;;;;;;;25.10;28.96;100151.45;1692911;84;21152;-71
2022/05/13 07:54:07;;;;;;;5.47;1.62;;;;;;;25.00;29.45;100149.30;1692578;84;21187;-71
2022/05/13 07:56:33;;;;;;;7.22;1.95;;;;;;;24.69;29.58;100167.59;1692949;84;21262;-70
2022/05/13 07:59:02;;;;;;;8.80;2.65;;;;;;;24.21;30.45;100160.45;1692263;84;21630;-71
2022/05/13 08:01:29;;;;;;;5.50;1.80;;;;;;;23.82;30.51;100165.84;1692436;84;21089;-70
2022/05/13 08:03:56;;;;;;;5.80;2.75;;;;;;;23.43;30.69;100168.46;1692493;83;21031;-71
2022/05/13 08:06:23;;;;;;;6.12;3.12;;;;;;;23.15;31.10;100167.41;1692596;83;21074;-70
2022/05/13 08:08:55;;;;;;;9.05;1.95;;;;;;;22.98;31.53;100180.94;1692093;84;21122;-71
2022/05/13 08:11:20;;;;;;;5.25;2.12;;;;;;;22.82;32.15;100173.38;1692284;84;21082;-71
2022/05/13 08:13:46;;;;;;;4.95;2.25;;;;;;;22.82;32.29;100176.07;1677487;84;21054;-71
2022/05/13 08:16:17;;;;;;;4.33;1.67;;;;;;;22.92;32.15;100172.11;1668969;85;21041;-69
2022/05/13 08:18:44;;;;;;;6.72;1.50;;;;;;;22.99;32.22;100162.55;1671931;85;21090;-71
2022/05/13 08:21:10;;;;;;;6.67;2.05;;;;;;;22.92;32.34;100172.11;1646888;85;21239;-71
2022/05/13 08:23:38;;;;;;;6.40;2.02;;;;;;;22.85;32.91;100162.89;1671745;85;21163;-71
2022/05/13 08:26:05;;;;;;;5.80;2.25;;;;;;;22.77;32.98;100164.39;1672564;85;21549;-72
2022/05/13 08:28:32;;;;;;;5.40;2.42;;;;;;;22.79;33.14;100154.88;1672157;85;22205;-72
2022/05/13 08:30:58;;;;;;;5.58;2.22;;;;;;;23.01;32.98;100156.55;1671952;85;21129;-70
2022/05/13 08:33:26;;;;;;;8.80;2.02;;;;;;;23.38;32.68;100144.69;1672101;85;21879;-71
2022/05/13 08:35:58;;;;;;;4.60;2.00;;;;;;;23.73;31.52;100145.99;1671977;85;21077;-70
2022/05/13 08:38:29;;;;;;;4.17;1.60;;;;;;;23.94;30.16;100153.95;1672357;85;21704;-70
2022/05/13 08:41:30;;;;;;;4.70;2.02;;;;;;;24.02;29.75;100143.84;1672266;85;21053;-72
2022/05/13 08:44:04;;;;;;;5.67;1.70;;;;;;;23.86;30.21;100151.13;1614869;85;21187;-71
2022/05/13 08:47:10;;;;;;;4.70;1.60;;;;;;;23.85;29.22;100138.16;1672148;85;21214;-71
2022/05/13 08:49:45;;;;;;;4.28;1.77;;;;;;;23.69;29.83;100141.04;1638551;84;21081;-71
2022/05/13 08:55:37;;;;;;;4.60;1.92;;;;;;;23.69;28.39;100139.70;1672471;85;21069;-70
2022/05/13 08:58:09;;;;;;;3.83;1.82;;;;;;;23.83;28.54;100140.64;1672362;85;21561;-71
2022/05/13 09:00:41;;;;;;;4.40;1.50;;;;;;;24.14;28.48;100139.15;1672432;85;21264;-71
2022/05/13 09:03:23;;;;;;;;;;;;;;;24.17;28.16;100140.20;1674512;85;21010;-71
2022/05/13 09:06:00;;;;;;;5.83;1.85;;;;;;;23.99;28.56;100128.81;1648630;87;20182;-71
2022/05/13 09:08:26;;;;;;;5.03;2.00;;;;;;;23.73;28.72;100129.86;1643367;87;21063;-73
2022/05/13 09:11:04;;;;;;;4.05;1.85;;;;;;;23.49;29.44;100120.88;1597873;87;21651;-71
2022/05/13 09:14:05;;;;;;;5.75;2.30;;;;;;;23.51;29.87;100125.59;1640247;87;21188;-72
2022/05/13 09:16:52;;;;;;;6.97;2.77;;;;;;;23.60;29.14;100130.16;1586279;90;21072;-70
2022/05/13 09:19:34;;;;;;;6.28;2.62;;;;;;;23.31;29.71;100131.97;1547052;90;21104;-71
2022/05/13 09:22:07;;;;;;;9.18;2.90;;;;;;;23.28;30.11;100117.44;1617982;86;21130;-71
2022/05/13 09:24:34;;;;;;;8.68;3.15;;;;;;;23.34;30.38;100123.61;1667134;86;21077;-70
2022/05/13 09:27:01;;;;;;;6.25;2.40;;;;;;;23.58;30.09;100117.35;1667143;86;21136;-71
2022/05/13 09:29:41;;;;;;;5.80;2.45;;;;;;;23.73;28.34;100120.95;1667140;86;21083;-71
2022/05/13 09:32:19;;;;;;;6.00;3.08;;;;;;;23.64;28.68;100114.08;1667068;84;24416;-70
2022/05/13 09:35:07;;;;;;;3.87;2.00;;;;;;;23.80;28.93;100109.52;1659746;86;21558;-71
2022/05/13 09:37:42;;;;;;;6.35;1.90;;;;;;;24.24;28.36;100103.64;1667107;86;21093;-71
2022/05/13 09:40:20;;;;;;;8.43;2.45;;;;;;;24.56;28.00;100110.52;1666292;86;21061;-71
2022/05/13 09:42:49;;;;;;;13.72;2.52;;;;;;;24.56;27.79;100117.25;1667143;86;21070;-71
2022/05/13 09:45:30;;;;;;;7.40;2.47;;;;;;;24.23;27.69;100122.14;1667068;86;21633;-71
2022/05/13 09:48:14;;;;;;;6.12;2.52;;;;;;;23.79;27.97;100113.70;1667311;86;21089;-71
2022/05/13 09:50:56;;;;;;;9.58;3.00;;;;;;;23.65;28.17;100109.08;1646885;86;21093;-71
2022/05/13 09:53:28;;;;;;;6.40;2.27;;;;;;;23.83;28.72;100097.61;1645993;86;21157;-72
2022/05/13 09:55:58;;;;;;;8.15;2.05;;;;;;;24.29;29.30;100100.00;1666996;86;21059;-71
2022/05/13 09:58:38;;;;;;;6.85;2.22;;;;;;;24.69;27.51;100095.72;1667135;86;21078;-72
2022/05/13 10:01:13;;;;;;;6.40;2.30;;;;;;;24.97;26.83;100093.53;1667200;86;21121;-73
2022/05/13 10:03:40;;;;;;;5.25;2.33;;;;;;;25.22;26.92;100084.75;1666965;86;21172;-71
2022/05/13 10:06:12;;;;;;;4.95;2.20;;;;;;;25.21;26.70;100092.98;1666871;84;21848;-72
2022/05/13 10:14:37;;;;;;;4.95;1.52;;;;;;;25.00;25.76;100097.27;1690858;84;21069;-72
2022/05/13 10:17:12;;;;;;;5.92;1.50;;;;;;;24.78;26.76;100092.64;1678048;84;21094;-71
2022/05/13 10:19:47;;;;;;;4.80;1.70;;;;;;;24.60;26.06;100095.77;1706470;82;21170;-71
2022/05/13 10:22:46;;;;;;;3.67;1.87;;;;;;;24.31;25.80;100087.77;1707698;84;21479;-72
2022/05/13 10:25:22;;;;;;;8.68;1.80;;;;;;;24.22;26.13;100089.48;1707801;84;21073;-71
2022/05/13 10:27:58;;;;;;;8.75;2.20;;;;;;;24.31;25.95;100079.19;1679499;84;21061;-72
2022/05/13 10:30:39;;;;;;;7.33;2.20;;;;;;;24.33;25.41;100085.27;1707778;84;21102;-71
2022/05/13 10:33:10;;;;;;;7.47;2.00;;;;;;;24.33;25.63;100075.85;1694612;84;21291;-71
2022/05/13 10:35:52;;;;;;;;;;;;;;;24.46;25.34;100072.84;1710151;84;21113;-71
2022/05/13 10:38:27;;;;;;;7.83;1.90;;;;;;;24.61;25.38;100070.53;1700118;84;20186;-71
2022/05/13 10:40:53;;;;;;;9.45;2.20;;;;;;;24.91;25.58;100075.64;1700180;83;21523;-72
2022/05/13 10:43:31;;;;;;;5.45;1.70;;;;;;;25.31;25.41;100083.84;1674542;84;21126;-70
2022/05/13 10:46:02;;;;;;;5.00;1.67;;;;;;;25.61;25.03;100080.41;1700417;84;21114;-71
2022/05/13 10:48:30;;;;;;;4.80;1.82;;;;;;;25.46;25.06;100069.81;1699137;84;21629;-71
2022/05/13 10:51:20;;;;;;;5.55;2.52;;;;;;;25.40;24.78;100081.20;1700513;84;21115;-71
2022/05/13 10:54:17;;;;;;;8.88;3.30;;;;;;;25.41;24.26;100076.17;1700567;84;21070;-72
2022/05/13 10:56:58;;;;;;;8.48;2.30;;;;;;;25.43;25.08;100069.62;1700115;84;21149;-71
2022/05/13 11:00:07;;;;;;;7.00;2.02;;;;;;;25.46;24.25;100069.81;1700471;84;21451;-71
2022/05/13 11:03:14;;;;;;;5.47;1.90;;;;;;;25.21;25.14;100073.61;1700282;84;21043;-71
2022/05/13 11:05:57;;;;;;;6.10;1.95;;;;;;;24.87;25.32;100075.58;1700290;84;21086;-72
2022/05/13 11:08:49;;;;;;;6.03;2.02;;;;;;;24.57;25.98;100073.16;1700438;84;21038;-70
2022/05/13 11:11:41;;;;;;;5.25;1.87;;;;;;;24.51;26.25;100061.66;1700418;84;21042;-71
2022/05/13 11:14:46;;;;;;;7.80;2.12;;;;;;;24.53;27.09;100055.64;1700146;84;21319;-70
2022/05/13 11:17:49;;;;;;;4.03;1.90;;;;;;;24.57;27.53;100059.70;1695365;83;21053;-70
2022/05/13 11:20:30;;;;;;;7.78;1.80;;;;;;;24.70;27.24;100044.06;1692402;84;21055;-72
2022/05/13 11:23:26;;;;;;;5.08;2.33;;;;;;;24.99;26.78;100044.40;1692724;84;21107;-71
2022/05/13 11:26:23;;;;;;;4.83;2.08;;;;;;;25.22;26.03;100030.86;1692586;84;21030;-72
2022/05/13 11:29:04;;;;;;;6.97;2.20;;;;;;;25.17;26.30;100037.18;1692587;84;21255;-71
2022/05/13 11:31:40;;;;;;;8.88;2.35;;;;;;;25.18;25.64;100032.16;1692875;84;21102;-70
2022/05/13 11:34:39;;;;;;;7.90;2.77;;;;;;;25.31;24.90;100034.48;1692579;84;21145;-71
2022/05/13 11:37:15;;;;;;;3.92;2.58;;;;;;;25.35;25.15;100028.27;1663615;84;21110;-72
2022/05/13 11:40:10;;;;;;;6.50;2.55;;;;;;;25.23;25.31;100029.00;1692287;84;21179;-70
2022/05/13 11:43:26;;;;;;;6.20;2.50;;;;;;;25.11;25.38;100031.05;1658642;84;21186;-71
2022/05/13 11:46:37;;;;;;;6.45;2.60;;;;;;;25.12;25.86;100026.86;1692451;84;21087;-71
2022/05/13 11:49:34;;;;;;;5.67;2.15;;;;;;;25.38;25.89;100018.03;1692536;84;21409;-72
2022/05/13 11:52:28;;;;;;;5.70;2.20;;;;;;;25.35;25.28;100016.97;1692909;84;21026;-71
2022/05/13 11:55:17;;;;;;;7.28;2.80;;;;;;;25.23;25.30;100009.63;1689663;84;22204;-71
2022/05/13 11:57:47;;;;;;;3.77;1.77;;;;;;;24.82;26.08;100013.22;1693015;84;21892;-71
2022/05/13 12:00:34;;;;;;;3.17;1.60;;;;;;;24.61;25.83;100004.57;1692460;83;21015;-71
2022/05/13 12:03:15;;;;;;;5.62;1.42;;;;;;;24.34;25.94;100015.67;1692490;84;21062;-71
2022/05/13 12:06:03;;;;;;;11.95;1.90;;;;;;;24.17;26.57;100005.67;1692672;84;21589;-71
2022/05/13 12:08:48;;;;;;;9.78;2.22;;;;;;;24.08;26.75;100008.73;1692730;84;21324;-70
2022/05/13 12:11:40;;;;;;;5.62;2.47;;;;;;;24.20;26.45;99997.30;1692633;84;21147;-71